createdAt,value
2018-03-20T00:00:23.194Z,45.60
2018-03-20T00:01:23.218Z,41.50
2018-03-20T00:02:23.243Z,43.90
2018-03-20T00:03:23.268Z,42.50
2018-03-20T00:04:23.294Z,41.70
2018-03-20T00:05:23.319Z,38.60
2018-03-20T00:06:23.348Z,39.90
2018-03-20T00:07:23.371Z,48.50
2018-03-20T00:08:23.397Z,43.00
2018-03-20T00:09:23.422Z,45.50
2018-03-20T00:10:23.448Z,43.30
2018-03-20T00:11:23.479Z,46.00
2018-03-20T00:12:23.499Z,44.90
2018-03-20T00:13:23.523Z,45.40
2018-03-20T00:14:23.549Z,47.80
2018-03-20T00:15:23.575Z,53.80
2018-03-20T00:16:23.600Z,44.70
2018-03-20T00:17:23.625Z,47.10
2018-03-20T00:18:23.650Z,46.00
2018-03-20T00:19:23.677Z,41.30
2018-03-20T00:20:23.703Z,49.50
2018-03-20T00:21:23.733Z,45.00
2018-03-20T00:22:23.753Z,51.90
2018-03-20T00:23:23.783Z,50.50
2018-03-20T00:24:23.803Z,47.40
2018-03-20T00:25:23.828Z,51.50
2018-03-20T00:26:23.854Z,49.00
2018-03-20T00:27:23.879Z,45.80
2018-03-20T00:28:23.906Z,50.10
2018-03-20T00:29:23.931Z,48.40
2018-03-20T00:30:23.956Z,48.60
2018-03-20T00:31:23.982Z,49.50
2018-03-20T00:32:24.009Z,42.50
2018-03-20T00:33:24.038Z,51.70
2018-03-20T00:34:24.058Z,47.50
2018-03-20T00:35:24.084Z,51.00
2018-03-20T00:36:24.109Z,45.70
2018-03-20T00:37:24.134Z,51.90
2018-03-20T00:38:24.160Z,46.50
2018-03-20T00:39:24.187Z,54.00
2018-03-20T00:40:24.212Z,49.50
2018-03-20T00:41:24.236Z,46.90
2018-03-20T00:42:24.262Z,49.90
2018-03-20T00:43:24.288Z,47.10
2018-03-20T00:44:24.315Z,46.90
2018-03-20T00:45:24.338Z,48.30
2018-03-20T00:46:24.368Z,47.10
2018-03-20T00:47:24.390Z,55.10
2018-03-20T00:48:24.415Z,48.30
2018-03-20T00:49:24.439Z,47.50
2018-03-20T00:50:24.470Z,54.40
2018-03-20T00:51:24.492Z,49.20
2018-03-20T00:52:24.521Z,44.10
2018-03-20T00:53:24.543Z,48.40
2018-03-20T00:54:24.569Z,52.60
2018-03-20T00:55:24.594Z,48.40
2018-03-20T00:56:24.620Z,51.10
2018-03-20T00:57:24.645Z,48.30
2018-03-20T00:58:24.671Z,46.00
2018-03-20T00:59:24.699Z,47.90
2018-03-20T01:00:24.724Z,52.20
2018-03-20T01:01:24.747Z,47.60
2018-03-20T01:02:24.772Z,45.80
2018-03-20T01:03:24.799Z,48.90
2018-03-20T01:04:24.824Z,47.50
2018-03-20T01:05:24.850Z,45.70
2018-03-20T01:06:24.875Z,47.60
2018-03-20T01:07:24.899Z,45.80
2018-03-20T01:08:24.927Z,47.40
2018-03-20T01:09:24.950Z,51.30
2018-03-20T01:10:24.977Z,50.90
2018-03-20T01:11:25.002Z,54.00
2018-03-20T01:12:25.030Z,48.50
2018-03-20T01:13:25.056Z,54.60
2018-03-20T01:14:25.078Z,45.90
2018-03-20T01:15:25.105Z,47.20
2018-03-20T01:16:25.130Z,48.40
2018-03-20T01:17:25.160Z,48.70
2018-03-20T01:18:25.223Z,43.00
2018-03-20T01:19:25.209Z,49.70
2018-03-20T01:20:25.237Z,49.20
2018-03-20T01:21:25.256Z,48.00
2018-03-20T01:22:25.284Z,46.40
2018-03-20T01:23:25.307Z,44.00
2018-03-20T01:24:25.334Z,48.70
2018-03-20T01:25:25.356Z,44.10
2018-03-20T01:26:25.383Z,49.50
2018-03-20T01:27:25.408Z,47.60
2018-03-20T01:28:25.433Z,48.30
2018-03-20T01:29:25.458Z,45.80
2018-03-20T01:30:25.483Z,43.30
2018-03-20T01:31:25.509Z,46.80
2018-03-20T01:32:25.535Z,53.20
2018-03-20T01:33:25.558Z,53.30
2018-03-20T01:34:25.585Z,47.20
2018-03-20T01:35:25.608Z,45.70
2018-03-20T01:36:25.634Z,49.10
2018-03-20T01:37:25.660Z,44.40
2018-03-20T01:38:25.683Z,49.50
2018-03-20T01:39:25.709Z,49.30
2018-03-20T01:40:25.738Z,52.90
2018-03-20T01:41:25.758Z,50.40
2018-03-20T01:42:25.783Z,47.20
2018-03-20T01:43:25.809Z,49.20
2018-03-20T01:44:25.835Z,47.60
2018-03-20T01:45:25.857Z,48.80
2018-03-20T01:46:25.882Z,49.10
2018-03-20T01:47:25.908Z,46.30
2018-03-20T01:48:25.933Z,49.30
2018-03-20T01:49:25.956Z,46.60
2018-03-20T01:50:25.980Z,49.20
2018-03-20T01:51:26.006Z,56.30
2018-03-20T01:52:26.032Z,52.20
2018-03-20T01:53:26.053Z,53.10
2018-03-20T01:54:26.079Z,51.80
2018-03-20T01:55:26.105Z,48.80
2018-03-20T01:56:26.133Z,48.80
2018-03-20T01:57:26.153Z,54.10
2018-03-20T01:58:26.177Z,47.50
2018-03-20T01:59:26.203Z,56.20
2018-03-20T02:00:26.227Z,54.50
2018-03-20T02:01:26.251Z,48.70
2018-03-20T02:02:26.275Z,48.40
2018-03-20T02:03:26.305Z,46.30
2018-03-20T02:04:26.325Z,50.80
2018-03-20T02:05:26.349Z,46.60
2018-03-20T02:06:26.373Z,47.60
2018-03-20T02:07:26.397Z,50.70
2018-03-20T02:08:26.422Z,50.30
2018-03-20T02:09:26.449Z,51.00
2018-03-20T02:10:26.471Z,43.10
2018-03-20T02:11:26.498Z,45.90
2018-03-20T02:12:26.522Z,49.20
2018-03-20T02:13:26.545Z,47.80
2018-03-20T02:14:26.573Z,46.50
2018-03-20T02:15:26.594Z,43.70
2018-03-20T02:16:26.627Z,44.80
2018-03-20T02:17:26.643Z,46.10
2018-03-20T02:18:26.667Z,40.30
2018-03-20T02:19:26.691Z,48.40
2018-03-20T02:20:26.716Z,45.90
2018-03-20T02:21:26.743Z,46.50
2018-03-20T02:22:26.765Z,50.90
2018-03-20T02:23:26.790Z,46.00
2018-03-20T02:24:26.816Z,45.70
2018-03-20T02:25:26.843Z,42.10
2018-03-20T02:26:26.862Z,45.90
2018-03-20T02:27:26.887Z,44.70
2018-03-20T02:28:26.913Z,50.10
2018-03-20T02:29:26.935Z,45.80
2018-03-20T02:30:26.959Z,47.70
2018-03-20T02:31:26.985Z,49.30
2018-03-20T02:32:27.015Z,46.70
2018-03-20T02:33:27.032Z,48.40
2018-03-20T02:34:27.059Z,45.70
2018-03-20T02:35:27.085Z,48.30
2018-03-20T02:36:27.108Z,47.90
2018-03-20T02:37:27.130Z,46.10
2018-03-20T02:38:27.156Z,44.10
2018-03-20T02:39:27.179Z,42.50
2018-03-20T02:40:27.203Z,41.40
2018-03-20T02:41:27.225Z,43.30
2018-03-20T02:42:27.254Z,45.20
2018-03-20T02:43:27.277Z,45.00
2018-03-20T02:44:27.298Z,43.50
2018-03-20T02:45:27.323Z,44.80
2018-03-20T02:46:27.346Z,42.80
2018-03-20T02:47:27.372Z,44.90
2018-03-20T02:48:27.407Z,38.20
2018-03-20T02:49:27.418Z,39.50
2018-03-20T02:50:27.443Z,39.70
2018-03-20T02:51:27.471Z,42.70
2018-03-20T02:52:27.493Z,40.00
2018-03-20T02:53:27.515Z,39.80
2018-03-20T02:54:27.537Z,37.60
2018-03-20T02:55:27.561Z,38.00
2018-03-20T02:56:27.586Z,35.70
2018-03-20T02:57:27.609Z,40.20
2018-03-20T02:58:27.634Z,38.70
2018-03-20T02:59:27.657Z,42.00
2018-03-20T03:00:27.680Z,38.40
2018-03-20T03:01:27.703Z,38.80
2018-03-20T03:02:27.729Z,40.00
2018-03-20T03:03:27.768Z,36.80
2018-03-20T03:04:27.777Z,40.00
2018-03-20T03:05:27.802Z,42.20
2018-03-20T03:06:27.824Z,43.00
2018-03-20T03:07:27.848Z,43.70
2018-03-20T03:08:27.872Z,41.60
2018-03-20T03:09:27.895Z,41.40
2018-03-20T03:10:27.933Z,45.40
2018-03-20T03:11:27.943Z,46.60
2018-03-20T03:12:27.967Z,39.00
2018-03-20T03:13:27.991Z,39.00
2018-03-20T03:14:28.015Z,35.60
2018-03-20T03:15:28.039Z,41.60
2018-03-20T03:16:28.063Z,39.70
2018-03-20T03:17:28.085Z,39.10
2018-03-20T03:18:28.114Z,43.80
2018-03-20T03:19:28.134Z,43.60
2018-03-20T03:20:28.159Z,41.60
2018-03-20T03:21:28.180Z,41.70
2018-03-20T03:22:28.205Z,39.70
2018-03-20T03:23:28.228Z,47.30
2018-03-20T03:24:28.253Z,44.40
2018-03-20T03:25:28.280Z,44.60
2018-03-20T03:26:28.356Z,42.50
2018-03-20T03:27:28.325Z,40.60
2018-03-20T03:28:28.348Z,40.30
2018-03-20T03:29:28.370Z,46.10
2018-03-20T03:30:28.396Z,39.50
2018-03-20T03:31:28.421Z,37.10
2018-03-20T03:32:28.442Z,39.00
2018-03-20T03:33:28.465Z,46.50
2018-03-20T03:34:28.489Z,47.50
2018-03-20T03:35:28.513Z,38.20
2018-03-20T03:36:28.540Z,50.80
2018-03-20T03:37:28.579Z,43.10
2018-03-20T03:38:28.584Z,43.00
2018-03-20T03:39:28.607Z,36.60
2018-03-20T03:40:28.631Z,40.00
2018-03-20T03:41:28.654Z,40.90
2018-03-20T03:42:28.678Z,40.40
2018-03-20T03:43:28.701Z,39.20
2018-03-20T03:44:28.725Z,42.90
2018-03-20T03:45:28.748Z,44.90
2018-03-20T03:46:28.770Z,42.80
2018-03-20T03:47:28.796Z,41.10
2018-03-20T03:48:28.819Z,43.60
2018-03-20T03:49:28.842Z,41.80
2018-03-20T03:50:28.865Z,39.60
2018-03-20T03:51:28.890Z,41.00
2018-03-20T03:52:28.913Z,44.50
2018-03-20T03:53:28.935Z,39.20
2018-03-20T03:54:28.959Z,40.50
2018-03-20T03:55:28.983Z,39.40
2018-03-20T03:56:29.005Z,42.40
2018-03-20T03:57:29.029Z,38.70
2018-03-20T03:58:29.053Z,44.00
2018-03-20T03:59:29.077Z,40.40
2018-03-20T04:00:29.100Z,43.70
2018-03-20T04:01:29.167Z,39.40
2018-03-20T04:02:29.147Z,41.40
2018-03-20T04:03:29.169Z,42.10
2018-03-20T04:04:29.194Z,39.30
2018-03-20T04:05:29.215Z,39.70
2018-03-20T04:06:29.239Z,42.20
2018-03-20T04:07:29.264Z,38.90
2018-03-20T04:08:29.288Z,44.30
2018-03-20T04:09:29.308Z,38.10
2018-03-20T04:10:29.333Z,43.20
2018-03-20T04:11:29.356Z,37.00
2018-03-20T04:12:29.380Z,43.60
2018-03-20T04:13:29.406Z,45.00
2018-03-20T04:14:29.425Z,45.60
2018-03-20T04:15:29.450Z,38.80
2018-03-20T04:16:29.473Z,39.40
2018-03-20T04:17:29.499Z,37.40
2018-03-20T04:18:29.518Z,40.30
2018-03-20T04:19:29.543Z,39.10
2018-03-20T04:20:29.566Z,45.30
2018-03-20T04:21:29.589Z,39.90
2018-03-20T04:22:29.614Z,39.60
2018-03-20T04:23:29.635Z,38.10
2018-03-20T04:24:29.660Z,51.20
2018-03-20T04:25:29.684Z,40.00
2018-03-20T04:26:29.706Z,45.20
2018-03-20T04:27:29.732Z,40.30
2018-03-20T04:28:29.753Z,40.10
2018-03-20T04:29:29.774Z,39.50
2018-03-20T04:30:29.799Z,38.00
2018-03-20T04:31:29.822Z,36.40
2018-03-20T04:32:29.846Z,42.30
2018-03-20T04:33:29.868Z,41.50
2018-03-20T04:34:29.890Z,38.10
2018-03-20T04:35:29.916Z,35.10
2018-03-20T04:36:29.939Z,43.70
2018-03-20T04:37:29.962Z,40.70
2018-03-20T04:38:29.985Z,41.50
2018-03-20T04:39:30.008Z,37.70
2018-03-20T04:40:30.033Z,39.20
2018-03-20T04:41:30.055Z,36.70
2018-03-20T04:42:30.079Z,35.00
2018-03-20T04:43:30.102Z,40.10
2018-03-20T04:44:30.126Z,35.90
2018-03-20T04:45:30.149Z,37.50
2018-03-20T04:46:30.169Z,38.90
2018-03-20T04:47:30.193Z,36.70
2018-03-20T04:48:30.217Z,39.10
2018-03-20T04:49:30.241Z,36.20
2018-03-20T04:50:30.266Z,47.20
2018-03-20T04:51:30.286Z,48.80
2018-03-20T04:52:30.311Z,51.30
2018-03-20T04:53:30.334Z,45.20
2018-03-20T04:54:30.360Z,42.60
2018-03-20T04:55:30.380Z,38.80
2018-03-20T04:56:30.403Z,44.10
2018-03-20T04:57:30.427Z,44.60
2018-03-20T04:58:30.450Z,42.50
2018-03-20T04:59:30.472Z,42.40
2018-03-20T05:00:30.494Z,41.30
2018-03-20T05:01:30.518Z,40.40
2018-03-20T05:02:30.541Z,49.70
2018-03-20T05:03:30.565Z,43.10
2018-03-20T05:04:30.588Z,42.90
2018-03-20T05:05:30.609Z,48.80
2018-03-20T05:06:30.635Z,45.50
2018-03-20T05:07:30.657Z,44.50
2018-03-20T05:08:30.679Z,39.70
2018-03-20T05:09:30.703Z,44.20
2018-03-20T05:10:30.726Z,46.60
2018-03-20T05:11:30.749Z,39.00
2018-03-20T05:12:30.772Z,38.70
2018-03-20T05:13:30.796Z,37.50
2018-03-20T05:14:30.817Z,38.30
2018-03-20T05:15:30.840Z,45.30
2018-03-20T05:16:30.867Z,43.30
2018-03-20T05:17:30.886Z,40.00
2018-03-20T05:18:30.908Z,42.80
2018-03-20T05:19:30.934Z,41.30
2018-03-20T05:20:30.955Z,41.30
2018-03-20T05:21:30.977Z,43.50
2018-03-20T05:22:31.001Z,40.70
2018-03-20T05:23:31.026Z,42.60
2018-03-20T05:24:31.049Z,49.20
2018-03-20T05:25:31.069Z,46.20
2018-03-20T05:26:31.093Z,41.80
2018-03-20T05:27:31.116Z,37.70
2018-03-20T05:28:31.167Z,41.90
2018-03-20T05:29:31.161Z,41.30
2018-03-20T05:30:31.187Z,43.30
2018-03-20T05:31:31.208Z,40.30
2018-03-20T05:32:31.236Z,45.80
2018-03-20T05:33:31.252Z,46.80
2018-03-20T05:34:31.285Z,45.60
2018-03-20T05:35:31.299Z,40.50
2018-03-20T05:36:31.322Z,44.40
2018-03-20T05:37:31.345Z,45.80
2018-03-20T05:38:31.369Z,43.90
2018-03-20T05:39:31.391Z,44.00
2018-03-20T05:40:31.416Z,39.10
2018-03-20T05:41:31.443Z,41.80
2018-03-20T05:42:31.459Z,41.40
2018-03-20T05:43:31.484Z,46.20
2018-03-20T05:44:31.511Z,42.00
2018-03-20T05:45:31.528Z,43.10
2018-03-20T05:46:31.552Z,46.60
2018-03-20T05:47:31.574Z,39.70
2018-03-20T05:48:31.596Z,41.00
2018-03-20T05:49:31.619Z,47.50
2018-03-20T05:50:31.644Z,44.90
2018-03-20T05:51:31.666Z,39.60
2018-03-20T05:52:31.689Z,48.10
2018-03-20T05:53:31.712Z,40.60
2018-03-20T05:54:31.734Z,40.90
2018-03-20T05:55:31.759Z,44.00
2018-03-20T05:56:31.780Z,43.50
2018-03-20T05:57:31.804Z,40.10
2018-03-20T05:58:31.831Z,45.70
2018-03-20T05:59:31.849Z,40.20
2018-03-20T06:00:31.873Z,43.10
2018-03-20T06:01:31.896Z,44.10
2018-03-20T06:02:31.917Z,40.60
2018-03-20T06:03:31.942Z,43.30
2018-03-20T06:04:31.965Z,39.50
2018-03-20T06:05:31.989Z,44.30
2018-03-20T06:06:32.009Z,41.80
2018-03-20T06:07:32.035Z,42.80
2018-03-20T06:08:32.062Z,40.70
2018-03-20T06:09:32.080Z,44.50
2018-03-20T06:10:32.111Z,44.10
2018-03-20T06:11:32.125Z,43.00
2018-03-20T06:12:32.149Z,41.90
2018-03-20T06:13:32.174Z,43.10
2018-03-20T06:14:32.195Z,42.60
2018-03-20T06:15:32.218Z,43.70
2018-03-20T06:16:32.241Z,42.20
2018-03-20T06:17:32.264Z,44.10
2018-03-20T06:18:32.289Z,42.40
2018-03-20T06:19:32.314Z,38.40
2018-03-20T06:20:32.333Z,43.00
2018-03-20T06:21:32.358Z,42.40
2018-03-20T06:22:32.380Z,41.00
2018-03-20T06:23:32.404Z,43.80
2018-03-20T06:24:32.434Z,37.20
2018-03-20T06:25:32.449Z,40.50
2018-03-20T06:26:32.472Z,41.40
2018-03-20T06:27:32.495Z,48.30
2018-03-20T06:28:32.518Z,41.80
2018-03-20T06:29:32.541Z,41.50
2018-03-20T06:30:32.566Z,40.60
2018-03-20T06:31:32.588Z,40.40
2018-03-20T06:32:32.611Z,41.30
2018-03-20T06:33:32.634Z,41.20
2018-03-20T06:34:32.657Z,38.50
2018-03-20T06:35:32.680Z,37.70
2018-03-20T06:36:32.704Z,42.50
2018-03-20T06:37:32.727Z,36.70
2018-03-20T06:38:32.754Z,35.00
2018-03-20T06:39:32.774Z,38.90
2018-03-20T06:40:32.797Z,35.30
2018-03-20T06:41:32.821Z,40.50
2018-03-20T06:42:32.846Z,41.60
2018-03-20T06:43:32.867Z,39.30
2018-03-20T06:44:32.892Z,51.10
2018-03-20T06:45:32.928Z,43.00
2018-03-20T06:46:32.937Z,43.70
2018-03-20T06:47:32.960Z,41.90
2018-03-20T06:48:32.983Z,39.30
2018-03-20T06:49:33.007Z,39.50
2018-03-20T06:50:33.030Z,39.70
2018-03-20T06:51:33.060Z,42.90
2018-03-20T06:52:33.079Z,41.70
2018-03-20T06:53:33.100Z,38.00
2018-03-20T06:54:33.125Z,38.40
2018-03-20T06:55:33.152Z,39.10
2018-03-20T06:56:33.172Z,42.10
2018-03-20T06:57:33.194Z,35.70
2018-03-20T06:58:33.220Z,38.90
2018-03-20T06:59:33.259Z,37.20
2018-03-20T07:00:33.265Z,42.80
2018-03-20T07:01:33.290Z,41.30
2018-03-20T07:02:33.313Z,45.20
2018-03-20T07:03:33.337Z,41.80
2018-03-20T07:04:33.367Z,37.50
2018-03-20T07:05:33.384Z,41.80
2018-03-20T07:06:33.408Z,39.30
2018-03-20T07:07:33.435Z,40.60
2018-03-20T07:08:33.457Z,37.80
2018-03-20T07:09:33.480Z,39.10
2018-03-20T07:10:33.502Z,39.50
2018-03-20T07:11:33.528Z,39.40
2018-03-20T07:12:33.552Z,43.30
2018-03-20T07:13:33.575Z,44.90
2018-03-20T07:14:33.601Z,48.40
2018-03-20T07:15:33.625Z,41.90
2018-03-20T07:16:33.648Z,41.30
2018-03-20T07:17:33.671Z,44.20
2018-03-20T07:18:33.696Z,43.50
2018-03-20T07:19:33.720Z,41.70
2018-03-20T07:20:33.745Z,42.20
2018-03-20T07:21:33.768Z,47.90
2018-03-20T07:22:33.792Z,45.30
2018-03-20T07:23:33.815Z,45.20
2018-03-20T07:24:33.841Z,46.30
2018-03-20T07:25:33.865Z,44.90
2018-03-20T07:26:33.888Z,43.80
2018-03-20T07:27:33.914Z,46.70
2018-03-20T07:28:33.937Z,43.00
2018-03-20T07:29:33.961Z,43.10
2018-03-20T07:30:33.986Z,45.90
2018-03-20T07:31:34.010Z,41.40
2018-03-20T07:32:34.036Z,42.10
2018-03-20T07:33:34.059Z,46.40
2018-03-20T07:34:34.083Z,44.80
2018-03-20T07:35:34.107Z,43.40
2018-03-20T07:36:34.133Z,42.80
2018-03-20T07:37:34.159Z,41.90
2018-03-20T07:38:34.182Z,42.20
2018-03-20T07:39:34.207Z,43.50
2018-03-20T07:40:34.232Z,45.10
2018-03-20T07:41:34.256Z,41.00
2018-03-20T07:42:34.280Z,44.70
2018-03-20T07:43:34.306Z,43.20
2018-03-20T07:44:34.331Z,51.00
2018-03-20T07:45:34.355Z,45.20
2018-03-20T07:46:34.380Z,45.30
2018-03-20T07:47:34.409Z,41.80
2018-03-20T07:48:34.431Z,47.10
2018-03-20T07:49:34.455Z,40.40
2018-03-20T07:50:34.480Z,42.20
2018-03-20T07:51:34.507Z,39.00
2018-03-20T07:52:34.531Z,43.80
2018-03-20T07:53:34.557Z,44.30
2018-03-20T07:54:34.584Z,41.50
2018-03-20T07:55:34.606Z,43.40
2018-03-20T07:56:34.631Z,37.20
2018-03-20T07:57:34.657Z,43.20
2018-03-20T07:58:34.682Z,38.40
2018-03-20T07:59:34.711Z,40.80
2018-03-20T08:00:34.734Z,38.20
2018-03-20T08:01:34.807Z,42.00
2018-03-20T08:02:34.784Z,43.70
2018-03-20T08:03:34.810Z,37.70
2018-03-20T08:04:34.836Z,44.50
2018-03-20T08:05:34.861Z,42.50
2018-03-20T08:06:34.887Z,40.00
2018-03-20T08:07:34.913Z,40.20
2018-03-20T08:08:34.940Z,39.60
2018-03-20T08:09:34.965Z,35.80
2018-03-20T08:10:34.990Z,34.50
2018-03-20T08:11:35.017Z,37.30
2018-03-20T08:12:35.046Z,38.00
2018-03-20T08:13:35.069Z,39.50
2018-03-20T08:14:35.099Z,39.60
2018-03-20T08:15:35.121Z,43.40
2018-03-20T08:16:35.148Z,41.30
2018-03-20T08:17:35.174Z,47.70
2018-03-20T08:18:35.203Z,40.50
2018-03-20T08:19:35.226Z,45.30
2018-03-20T08:20:35.254Z,38.30
2018-03-20T08:21:35.283Z,39.50
2018-03-20T08:22:35.308Z,39.00
2018-03-20T08:23:35.333Z,40.10
2018-03-20T08:24:35.360Z,38.60
2018-03-20T08:25:35.386Z,37.30
2018-03-20T08:26:35.412Z,39.80
2018-03-20T08:27:35.440Z,37.70
2018-03-20T08:28:35.466Z,40.00
2018-03-20T08:29:35.492Z,39.70
2018-03-20T08:30:35.520Z,38.50
2018-03-20T08:31:35.547Z,39.30
2018-03-20T08:32:35.574Z,41.60
2018-03-20T08:33:35.600Z,38.40
2018-03-20T08:34:35.629Z,39.00
2018-03-20T08:35:35.655Z,36.40
2018-03-20T08:36:35.687Z,40.70
2018-03-20T08:37:35.709Z,31.70
2018-03-20T08:38:35.739Z,37.60
2018-03-20T08:39:35.764Z,38.60
2018-03-20T08:40:35.792Z,40.40
2018-03-20T08:41:35.819Z,33.70
2018-03-20T08:42:35.849Z,39.30
2018-03-20T08:43:35.879Z,35.90
2018-03-20T08:44:35.903Z,34.00
2018-03-20T08:45:35.930Z,37.80
2018-03-20T08:46:35.981Z,37.80
2018-03-20T08:47:35.985Z,43.10
2018-03-20T08:48:36.014Z,41.90
2018-03-20T08:49:36.042Z,44.80
2018-03-20T08:50:36.073Z,40.40
2018-03-20T08:51:36.099Z,44.80
2018-03-20T08:52:36.154Z,43.80
2018-03-20T08:53:36.156Z,41.50
2018-03-20T08:54:36.185Z,40.90
2018-03-20T08:55:36.213Z,42.90
2018-03-20T08:56:36.242Z,39.80
2018-03-20T08:57:36.271Z,36.50
2018-03-20T08:58:36.301Z,39.30
2018-03-20T08:59:36.330Z,40.10
2018-03-20T09:00:36.363Z,41.60
2018-03-20T09:01:36.391Z,35.90
2018-03-20T09:02:36.423Z,35.80
2018-03-20T09:03:36.452Z,38.40
2018-03-20T09:04:36.484Z,36.40
2018-03-20T09:05:36.516Z,35.20
2018-03-20T09:06:36.547Z,40.00
2018-03-20T09:07:36.580Z,41.10
2018-03-20T09:08:36.616Z,37.10
2018-03-20T09:09:36.645Z,35.70
2018-03-20T09:10:36.678Z,35.00
2018-03-20T09:11:36.712Z,36.60
2018-03-20T09:12:36.798Z,38.40
2018-03-20T09:13:36.778Z,39.70
2018-03-20T09:14:36.813Z,37.70
2018-03-20T09:15:36.848Z,40.60
2018-03-20T09:16:36.884Z,41.40
2018-03-20T09:17:36.917Z,39.70
2018-03-20T09:18:36.953Z,38.20
2018-03-20T09:19:36.988Z,38.50
2018-03-20T09:20:37.025Z,42.60
2018-03-20T09:21:37.061Z,38.40
2018-03-20T09:22:37.096Z,35.90
2018-03-20T09:23:37.132Z,36.50
2018-03-20T09:24:37.169Z,37.30
2018-03-20T09:25:37.205Z,35.60
2018-03-20T09:26:37.244Z,35.30
2018-03-20T09:27:37.279Z,34.00
2018-03-20T09:28:37.317Z,33.60
2018-03-20T09:29:37.354Z,35.30
2018-03-20T09:30:37.391Z,36.20
2018-03-20T09:31:37.430Z,34.20
2018-03-20T09:32:37.469Z,37.50
2018-03-20T09:33:37.505Z,36.50
2018-03-20T09:34:37.543Z,36.50
2018-03-20T09:35:37.583Z,39.70
2018-03-20T09:36:37.620Z,34.90
2018-03-20T09:37:37.658Z,34.40
2018-03-20T09:38:37.697Z,33.60
2018-03-20T09:39:37.736Z,33.70
2018-03-20T09:40:37.774Z,31.50
2018-03-20T09:41:37.814Z,31.80
2018-03-20T09:42:37.854Z,33.10
2018-03-20T09:43:37.891Z,34.80
2018-03-20T09:44:37.931Z,34.30
2018-03-20T09:45:37.970Z,34.60
2018-03-20T09:46:38.010Z,33.20
2018-03-20T09:47:38.052Z,34.30
2018-03-20T09:48:38.092Z,33.90
2018-03-20T09:49:38.131Z,34.50
2018-03-20T09:50:38.170Z,33.30
2018-03-20T09:51:38.210Z,30.30
2018-03-20T09:52:38.251Z,29.50
2018-03-20T09:53:38.292Z,33.80
2018-03-20T09:54:38.335Z,32.90
2018-03-20T09:55:38.372Z,31.00
2018-03-20T09:56:38.411Z,31.30
2018-03-20T09:57:38.452Z,31.80
2018-03-20T09:58:38.500Z,33.20
2018-03-20T09:59:38.534Z,32.20
2018-03-20T10:00:38.577Z,30.10
2018-03-20T10:01:38.620Z,33.70
2018-03-20T10:02:38.655Z,28.60
2018-03-20T10:03:38.697Z,30.70
2018-03-20T10:04:38.739Z,29.10
2018-03-20T10:05:38.777Z,31.60
2018-03-20T10:06:38.819Z,33.60
2018-03-20T10:07:38.862Z,31.40
2018-03-20T10:08:38.903Z,30.90
2018-03-20T10:09:38.948Z,30.60
2018-03-20T10:10:38.986Z,29.00
2018-03-20T10:11:39.028Z,29.60
2018-03-20T10:12:39.071Z,29.70
2018-03-20T10:13:39.112Z,30.60
2018-03-20T10:14:39.158Z,28.60
2018-03-20T10:15:39.200Z,28.00
2018-03-20T10:16:39.239Z,28.30
2018-03-20T10:17:39.283Z,29.20
2018-03-20T10:18:39.326Z,30.50
2018-03-20T10:19:39.368Z,29.40
2018-03-20T10:20:39.412Z,27.70
2018-03-20T10:21:39.454Z,30.10
2018-03-20T10:22:39.497Z,27.30
2018-03-20T10:23:39.540Z,27.60
2018-03-20T10:24:39.584Z,28.60
2018-03-20T10:25:39.627Z,26.60
2018-03-20T10:26:39.671Z,28.80
2018-03-20T10:27:39.714Z,29.00
2018-03-20T10:28:39.758Z,29.40
2018-03-20T10:29:39.800Z,26.70
2018-03-20T10:30:39.849Z,29.50
2018-03-20T10:31:39.887Z,28.40
2018-03-20T10:32:39.932Z,28.80
2018-03-20T10:33:39.974Z,33.30
2018-03-20T10:34:40.022Z,30.30
2018-03-20T10:35:40.064Z,26.90
2018-03-20T10:36:40.108Z,33.60
2018-03-20T10:37:40.151Z,28.40
2018-03-20T10:38:40.200Z,29.70
2018-03-20T10:39:40.240Z,26.70
2018-03-20T10:40:40.284Z,30.70
2018-03-20T10:41:40.330Z,29.00
2018-03-20T10:42:40.374Z,23.00
2018-03-20T10:43:40.421Z,28.10
2018-03-20T10:44:40.468Z,29.20
2018-03-20T10:45:40.513Z,26.00
2018-03-20T10:46:40.560Z,23.90
2018-03-20T10:47:40.602Z,26.60
2018-03-20T10:48:40.648Z,24.60
2018-03-20T10:49:40.694Z,29.90
2018-03-20T10:50:40.739Z,27.20
2018-03-20T10:51:40.783Z,32.00
2018-03-20T10:52:40.831Z,29.80
2018-03-20T10:53:40.918Z,32.90
2018-03-20T10:54:40.921Z,30.30
2018-03-20T10:55:40.970Z,28.50
2018-03-20T10:56:41.023Z,27.90
2018-03-20T10:57:41.061Z,30.20
2018-03-20T10:58:41.104Z,27.00
2018-03-20T10:59:41.151Z,23.80
2018-03-20T11:00:41.199Z,28.40
2018-03-20T11:01:41.241Z,25.90
2018-03-20T11:02:41.288Z,28.20
2018-03-20T11:03:41.335Z,29.00
2018-03-20T11:04:41.381Z,27.80
2018-03-20T11:05:41.426Z,28.20
2018-03-20T11:06:41.471Z,29.80
2018-03-20T11:07:41.520Z,27.10
2018-03-20T11:08:41.565Z,25.10
2018-03-20T11:09:41.609Z,24.00
2018-03-20T11:10:41.657Z,23.30
2018-03-20T11:11:41.704Z,23.40
2018-03-20T11:12:41.749Z,24.60
2018-03-20T11:13:41.797Z,26.30
2018-03-20T11:14:41.845Z,23.10
2018-03-20T11:15:41.888Z,29.20
2018-03-20T11:16:41.935Z,23.40
2018-03-20T11:17:41.980Z,23.00
2018-03-20T11:18:42.027Z,23.10
2018-03-20T11:19:42.073Z,22.60
2018-03-20T11:20:42.119Z,25.80
2018-03-20T11:21:42.165Z,23.60
2018-03-20T11:22:42.211Z,24.20
2018-03-20T11:23:42.257Z,21.00
2018-03-20T11:24:42.358Z,22.70
2018-03-20T11:25:42.347Z,23.50
2018-03-20T11:26:42.393Z,20.60
2018-03-20T11:27:42.440Z,24.60
2018-03-20T11:28:42.486Z,22.10
2018-03-20T11:29:42.530Z,23.80
2018-03-20T11:30:42.577Z,21.60
2018-03-20T11:31:42.624Z,23.80
2018-03-20T11:32:42.669Z,24.20
2018-03-20T11:33:42.714Z,20.20
2018-03-20T11:34:42.760Z,22.70
2018-03-20T11:35:42.805Z,21.60
2018-03-20T11:36:42.852Z,18.70
2018-03-20T11:37:42.898Z,23.90
2018-03-20T11:38:42.948Z,19.80
2018-03-20T11:39:42.990Z,20.20
2018-03-20T11:40:43.037Z,22.80
2018-03-20T11:41:43.082Z,22.60
2018-03-20T11:42:43.128Z,17.70
2018-03-20T11:43:43.175Z,19.80
2018-03-20T11:44:43.221Z,19.50
2018-03-20T11:45:43.267Z,18.20
2018-03-20T11:46:43.314Z,21.30
2018-03-20T11:47:43.360Z,22.10
2018-03-20T11:48:43.406Z,20.10
2018-03-20T11:49:43.458Z,19.40
2018-03-20T11:50:43.498Z,20.30
2018-03-20T11:51:43.543Z,18.70
2018-03-20T11:52:43.592Z,17.60
2018-03-20T11:53:43.641Z,19.20
2018-03-20T11:54:43.685Z,19.90
2018-03-20T11:55:43.733Z,17.10
2018-03-20T11:56:43.780Z,16.70
2018-03-20T11:57:43.826Z,19.30
2018-03-20T11:58:43.873Z,19.70
2018-03-20T11:59:43.920Z,16.10
2018-03-20T12:00:43.968Z,17.70
2018-03-20T12:01:44.012Z,15.80
2018-03-20T12:02:44.058Z,18.80
2018-03-20T12:03:44.105Z,15.60
2018-03-20T12:04:44.150Z,19.50
2018-03-20T12:05:44.194Z,16.70
2018-03-20T12:06:44.242Z,19.30
2018-03-20T12:07:44.283Z,17.60
2018-03-20T12:08:44.328Z,18.30
2018-03-20T12:09:44.370Z,19.90
2018-03-20T12:10:44.414Z,17.20
2018-03-20T12:11:44.460Z,17.40
2018-03-20T12:12:44.505Z,20.00
2018-03-20T12:13:44.547Z,16.30
2018-03-20T12:14:44.590Z,17.70
2018-03-20T12:15:44.634Z,17.10
2018-03-20T12:16:44.677Z,15.00
2018-03-20T12:17:44.719Z,17.30
2018-03-20T12:18:44.765Z,19.90
2018-03-20T12:19:44.805Z,15.10
2018-03-20T12:20:44.849Z,15.10
2018-03-20T12:21:44.890Z,16.00
2018-03-20T12:22:44.932Z,16.90
2018-03-20T12:23:44.975Z,14.30
2018-03-20T12:24:45.021Z,14.80
2018-03-20T12:25:45.056Z,13.50
2018-03-20T12:26:45.098Z,15.30
2018-03-20T12:27:45.140Z,15.90
2018-03-20T12:28:45.182Z,15.90
2018-03-20T12:29:45.222Z,14.50
2018-03-20T12:30:45.264Z,12.30
2018-03-20T12:31:45.307Z,14.50
2018-03-20T12:32:45.346Z,14.90
2018-03-20T12:33:45.385Z,12.70
2018-03-20T12:34:45.428Z,14.00
2018-03-20T12:35:45.466Z,13.00
2018-03-20T12:36:45.505Z,16.70
2018-03-20T12:37:45.604Z,15.60
2018-03-20T12:38:45.582Z,16.30
2018-03-20T12:39:45.622Z,12.70
2018-03-20T12:40:45.661Z,12.30
2018-03-20T12:41:45.698Z,12.20
2018-03-20T12:42:45.736Z,12.80
2018-03-20T12:43:45.774Z,14.60
2018-03-20T12:44:45.812Z,13.30
2018-03-20T12:45:45.849Z,12.90
2018-03-20T12:46:45.945Z,11.40
2018-03-20T12:47:45.923Z,12.40
2018-03-20T12:48:45.960Z,10.50
2018-03-20T12:49:45.995Z,11.80
2018-03-20T12:50:46.032Z,12.10
2018-03-20T12:51:46.067Z,11.10
2018-03-20T12:52:46.103Z,10.80